createdAt,value
2023-05-12T00:00:12.988Z,9.68
2023-05-12T00:02:39.991Z,8.75
2023-05-12T00:05:07.361Z,8.63
2023-05-12T00:07:34.404Z,12.88
2023-05-12T00:10:01.283Z,8.38
2023-05-12T00:12:28.156Z,9.13
2023-05-12T00:14:55.129Z,8.00
2023-05-12T00:17:22.158Z,8.55
2023-05-12T00:19:49.007Z,9.63
2023-05-12T00:22:16.930Z,8.80
2023-05-12T00:24:43.804Z,22.65
2023-05-12T00:27:10.590Z,13.00
2023-05-12T00:29:37.471Z,11.95
2023-05-12T00:32:04.566Z,8.88
2023-05-12T00:34:31.361Z,9.40
2023-05-12T00:36:58.201Z,9.25
2023-05-12T00:39:25.023Z,8.00
2023-05-12T00:42:06.846Z,11.77
2023-05-12T00:44:33.795Z,8.30
2023-05-12T00:47:00.594Z,7.55
2023-05-12T00:49:27.754Z,9.35
2023-05-12T00:51:55.827Z,7.93
2023-05-12T00:54:23.146Z,7.57
2023-05-12T00:56:50.141Z,17.30
2023-05-12T00:59:16.909Z,8.70
2023-05-12T01:01:44.172Z,7.85
2023-05-12T01:04:11.144Z,7.18
2023-05-12T01:06:51.514Z,7.78
2023-05-12T01:09:19.006Z,8.77
2023-05-12T01:11:45.788Z,7.60
2023-05-12T01:14:12.580Z,10.30
2023-05-12T01:17:11.415Z,8.57
2023-05-12T01:19:49.752Z,7.65
2023-05-12T01:22:18.106Z,7.47
2023-05-12T01:24:55.904Z,10.43
2023-05-12T01:27:28.407Z,9.80
2023-05-12T01:29:59.426Z,8.60
2023-05-12T01:32:26.743Z,7.00
2023-05-12T01:34:53.535Z,7.60
2023-05-12T01:37:20.653Z,7.03
2023-05-12T01:39:47.549Z,7.72
2023-05-12T01:42:14.406Z,7.03
2023-05-12T01:44:41.232Z,6.20
2023-05-12T01:47:09.960Z,8.10
2023-05-12T01:49:37.750Z,9.68
2023-05-12T01:52:05.014Z,8.57
2023-05-12T01:54:31.780Z,10.68
2023-05-12T01:56:58.545Z,10.57
2023-05-12T01:59:25.373Z,10.20
2023-05-12T02:01:52.232Z,7.97
2023-05-12T02:04:19.075Z,10.57
2023-05-12T02:06:45.938Z,11.05
2023-05-12T02:09:13.219Z,13.20
2023-05-12T02:11:40.123Z,19.25
2023-05-12T02:14:06.907Z,10.43
2023-05-12T02:16:33.714Z,11.57
2023-05-12T02:19:00.609Z,11.80
2023-05-12T02:21:28.003Z,10.07
2023-05-12T02:23:56.139Z,11.65
2023-05-12T02:26:22.981Z,12.55
2023-05-12T02:28:49.758Z,13.25
2023-05-12T02:31:16.704Z,14.23
2023-05-12T02:33:43.496Z,13.15
2023-05-12T02:36:10.275Z,12.57
2023-05-12T02:38:37.042Z,11.10
2023-05-12T02:41:03.818Z,14.32
2023-05-12T02:43:30.603Z,14.52
2023-05-12T02:45:57.418Z,13.85
2023-05-12T02:48:24.232Z,14.52
2023-05-12T02:50:51.082Z,16.33
2023-05-12T02:53:17.860Z,14.45
2023-05-12T02:55:44.665Z,15.15
2023-05-12T02:58:11.544Z,14.23
2023-05-12T03:00:38.314Z,12.95
2023-05-12T03:03:05.276Z,13.52
2023-05-12T03:05:32.074Z,15.93
2023-05-12T03:07:58.987Z,19.20
2023-05-12T03:10:25.961Z,20.60
2023-05-12T03:12:52.753Z,16.27
2023-05-12T03:15:19.554Z,17.70
2023-05-12T03:17:46.345Z,21.10
2023-05-12T03:20:13.236Z,17.65
2023-05-12T03:22:40.035Z,17.17
2023-05-12T03:25:10.112Z,15.45
2023-05-12T03:27:36.877Z,13.27
2023-05-12T03:30:05.567Z,14.48
2023-05-12T03:32:32.377Z,23.80
2023-05-12T03:34:59.155Z,13.52
2023-05-12T03:37:26.298Z,13.13
2023-05-12T03:39:55.990Z,14.38
2023-05-12T03:42:24.012Z,13.80
2023-05-12T03:44:54.085Z,11.00
2023-05-12T03:47:20.976Z,14.50
2023-05-12T03:49:47.803Z,11.82
2023-05-12T03:52:14.849Z,11.82
2023-05-12T03:54:41.596Z,10.77
2023-05-12T03:57:08.376Z,12.65
2023-05-12T03:59:35.273Z,19.50
2023-05-12T04:02:02.193Z,11.65
2023-05-12T04:04:29.077Z,11.25
2023-05-12T04:06:56.200Z,11.00
2023-05-12T04:09:22.996Z,12.70
2023-05-12T04:11:49.822Z,12.13
2023-05-12T04:14:16.566Z,12.70
2023-05-12T04:16:43.366Z,12.52
2023-05-12T04:19:10.240Z,10.07
2023-05-12T04:21:37.009Z,9.48
2023-05-12T04:24:04.084Z,9.50
2023-05-12T04:26:30.826Z,9.05
2023-05-12T04:28:57.583Z,11.75
2023-05-12T04:31:24.438Z,9.15
2023-05-12T04:33:51.851Z,10.50
2023-05-12T04:36:18.609Z,10.25
2023-05-12T04:38:45.725Z,8.68
2023-05-12T04:41:12.530Z,9.57
2023-05-12T04:46:09.072Z,9.27
2023-05-12T04:48:41.732Z,9.32
2023-05-12T04:51:08.887Z,11.23
2023-05-12T04:53:36.225Z,12.35
2023-05-12T04:56:03.801Z,7.82
2023-05-12T04:58:30.603Z,7.55
2023-05-12T05:00:57.497Z,9.25
2023-05-12T05:03:24.645Z,7.75
2023-05-12T05:05:51.521Z,15.02
2023-05-12T05:08:18.479Z,11.77
2023-05-12T05:10:45.369Z,6.88
2023-05-12T05:13:12.204Z,9.30
2023-05-12T05:15:39.022Z,6.97
2023-05-12T05:18:05.986Z,9.07
2023-05-12T05:20:34.323Z,12.75
2023-05-12T05:23:01.285Z,6.43
2023-05-12T05:25:28.089Z,7.53
2023-05-12T05:27:55.692Z,5.97
2023-05-12T05:30:22.499Z,5.50
2023-05-12T05:32:49.418Z,7.93
2023-05-12T05:35:16.671Z,6.85
2023-05-12T05:37:43.547Z,5.63
2023-05-12T05:40:10.555Z,5.55
2023-05-12T05:42:37.529Z,8.80
2023-05-12T05:45:04.847Z,5.90
2023-05-12T05:47:32.209Z,4.95
2023-05-12T05:49:59.105Z,9.65
2023-05-12T05:52:25.953Z,5.85
2023-05-12T05:54:52.938Z,8.70
2023-05-12T05:57:19.749Z,7.18
2023-05-12T05:59:46.942Z,5.82
2023-05-12T06:02:14.004Z,6.80
2023-05-12T06:04:40.785Z,7.70
2023-05-12T06:07:07.625Z,5.65
2023-05-12T06:09:34.404Z,7.03
2023-05-12T06:12:01.247Z,4.30
2023-05-12T06:14:28.089Z,6.10
2023-05-12T06:16:54.989Z,5.00
2023-05-12T06:19:21.799Z,5.68
2023-05-12T06:21:48.579Z,5.50
2023-05-12T06:24:15.360Z,13.90
2023-05-12T06:26:42.126Z,8.32
2023-05-12T06:29:09.006Z,4.78
2023-05-12T06:31:35.974Z,5.47
2023-05-12T06:34:03.152Z,4.72
2023-05-12T06:36:30.454Z,4.82
2023-05-12T06:38:57.348Z,5.70
2023-05-12T06:41:25.227Z,6.90
2023-05-12T06:43:52.257Z,6.53
2023-05-12T06:46:19.219Z,5.88
2023-05-12T06:48:46.282Z,7.72
2023-05-12T06:51:13.561Z,4.72
2023-05-12T06:53:43.581Z,5.78
2023-05-12T06:56:14.306Z,5.25
2023-05-12T06:58:41.078Z,6.85
2023-05-12T07:01:07.989Z,6.47
2023-05-12T07:03:34.957Z,5.13
2023-05-12T07:06:01.837Z,5.50
2023-05-12T07:08:28.752Z,5.50
2023-05-12T07:10:55.677Z,5.15
2023-05-12T07:13:22.716Z,5.97
2023-05-12T07:15:49.637Z,8.60
2023-05-12T07:18:16.644Z,6.65
2023-05-12T07:20:43.955Z,6.70
2023-05-12T07:23:10.780Z,9.32
2023-05-12T07:25:37.901Z,5.72
2023-05-12T07:28:05.368Z,5.70
2023-05-12T07:30:32.245Z,6.40
2023-05-12T07:33:01.113Z,7.88
2023-05-12T07:35:28.161Z,7.70
2023-05-12T07:37:55.085Z,10.82
2023-05-12T07:40:22.057Z,6.50
2023-05-12T07:42:48.926Z,7.72
2023-05-12T07:45:22.870Z,5.03
2023-05-12T07:47:50.930Z,10.52
2023-05-12T07:50:18.760Z,7.75
2023-05-12T07:52:52.986Z,4.68
2023-05-12T07:55:22.167Z,7.43
2023-05-12T07:57:52.379Z,7.20
2023-05-12T08:00:19.428Z,6.03
2023-05-12T08:02:47.217Z,5.43
2023-05-12T08:05:14.652Z,7.35
2023-05-12T08:07:43.612Z,5.88
2023-05-12T08:10:12.914Z,4.78
2023-05-12T08:12:41.058Z,6.10
2023-05-12T08:15:09.436Z,7.38
2023-05-12T08:17:36.284Z,6.05
2023-05-12T08:20:06.702Z,8.95
2023-05-12T08:22:33.898Z,7.50
2023-05-12T08:25:00.669Z,5.55
2023-05-12T08:27:27.551Z,11.00
2023-05-12T08:29:54.348Z,9.38
2023-05-12T08:32:21.202Z,6.28
2023-05-12T08:34:53.159Z,7.13
2023-05-12T08:37:20.751Z,7.38
2023-05-12T08:39:47.640Z,10.40
2023-05-12T08:42:50.198Z,7.32
2023-05-12T08:45:17.983Z,9.10
2023-05-12T08:47:45.996Z,11.25
2023-05-12T08:50:14.386Z,11.38
2023-05-12T08:52:41.423Z,7.22
2023-05-12T08:55:09.933Z,11.32
2023-05-12T08:57:39.495Z,7.65
2023-05-12T09:00:08.953Z,10.57
2023-05-12T09:02:52.193Z,6.85
2023-05-12T09:07:49.678Z,8.93
2023-05-12T09:10:32.748Z,8.18
2023-05-12T09:13:20.603Z,6.70
2023-05-12T09:15:48.841Z,5.68
2023-05-12T09:18:16.107Z,8.00
2023-05-12T09:20:43.145Z,9.50
2023-05-12T09:23:28.291Z,10.48
2023-05-12T09:26:01.505Z,6.80
2023-05-12T09:28:36.731Z,5.72
2023-05-12T09:31:24.167Z,6.53
2023-05-12T09:33:52.024Z,4.88
2023-05-12T09:36:21.527Z,7.20
2023-05-12T09:39:07.118Z,6.47
2023-05-12T09:41:42.904Z,5.57
2023-05-12T09:44:10.970Z,5.88
2023-05-12T09:46:39.805Z,7.95
2023-05-12T09:49:06.793Z,6.10
2023-05-12T09:51:33.873Z,9.38
2023-05-12T09:54:01.069Z,7.30
2023-05-12T09:56:29.647Z,5.18
2023-05-12T09:58:57.461Z,4.72
2023-05-12T10:01:25.640Z,6.03
2023-05-12T10:03:57.585Z,5.90
2023-05-12T10:06:36.518Z,4.82
2023-05-12T10:09:21.958Z,3.15
2023-05-12T10:11:53.502Z,3.97
2023-05-12T10:14:22.960Z,4.78
2023-05-12T10:16:51.193Z,10.32
2023-05-12T10:19:19.215Z,5.65
2023-05-12T10:21:47.145Z,10.52
2023-05-12T10:24:17.662Z,4.40
2023-05-12T10:26:44.856Z,3.05
2023-05-12T10:29:12.748Z,3.90
2023-05-12T10:31:40.060Z,3.03
2023-05-12T10:34:07.356Z,4.82
2023-05-12T10:36:49.732Z,4.47
2023-05-12T10:39:16.970Z,8.82
2023-05-12T10:41:43.923Z,3.38
2023-05-12T10:44:10.876Z,9.43
2023-05-12T10:46:37.803Z,3.60
2023-05-12T10:49:10.140Z,3.53
2023-05-12T10:51:43.014Z,3.38
2023-05-12T10:54:13.152Z,4.40
2023-05-12T10:56:40.289Z,3.40
2023-05-12T10:59:23.643Z,5.78
2023-05-12T11:01:58.921Z,5.53
2023-05-12T11:04:46.640Z,9.27
2023-05-12T11:07:17.008Z,6.32
2023-05-12T11:12:16.088Z,4.22
2023-05-12T11:14:45.454Z,8.15
2023-05-12T11:17:12.760Z,5.45
2023-05-12T11:19:40.180Z,5.65
2023-05-12T11:22:12.269Z,4.05
2023-05-12T11:24:41.340Z,6.18
2023-05-12T11:27:14.708Z,2.83
2023-05-12T11:29:43.383Z,3.47
2023-05-12T11:32:12.471Z,6.13
2023-05-12T11:34:39.549Z,7.60
2023-05-12T11:37:08.960Z,6.45
2023-05-12T11:39:36.452Z,4.72
2023-05-12T11:42:12.205Z,4.05
2023-05-12T11:44:50.037Z,4.68
2023-05-12T11:47:21.795Z,6.97
2023-05-12T11:49:55.088Z,4.05
2023-05-12T11:52:24.306Z,8.55
2023-05-12T11:55:00.843Z,3.42
2023-05-12T11:57:32.655Z,2.88
2023-05-12T12:00:05.603Z,3.83
2023-05-12T12:02:33.363Z,5.90
2023-05-12T12:05:00.803Z,2.85
2023-05-12T12:07:35.322Z,4.25
2023-05-12T12:12:41.258Z,6.10
2023-05-12T12:15:09.899Z,3.30
2023-05-12T12:17:37.331Z,3.63
2023-05-12T12:20:04.455Z,7.05
2023-05-12T12:22:34.129Z,4.35
2023-05-12T12:25:02.767Z,7.43
2023-05-12T12:27:29.713Z,2.80
2023-05-12T12:29:56.608Z,4.15
2023-05-12T12:32:23.651Z,3.83
2023-05-12T12:34:50.572Z,3.08
2023-05-12T12:37:17.636Z,2.00
2023-05-12T12:39:44.596Z,8.20
2023-05-12T12:42:11.489Z,2.58
2023-05-12T12:44:38.342Z,4.53
2023-05-12T12:47:05.489Z,2.55
2023-05-12T12:49:32.352Z,4.07
2023-05-12T12:51:59.213Z,5.38
2023-05-12T12:54:27.375Z,8.20
2023-05-12T12:56:55.603Z,2.67
2023-05-12T12:59:23.295Z,1.95
2023-05-12T13:01:50.346Z,6.22
2023-05-12T13:04:22.102Z,3.60
2023-05-12T13:06:49.405Z,5.65
2023-05-12T13:09:19.538Z,2.55
2023-05-12T13:11:47.653Z,5.63
2023-05-12T13:14:14.673Z,4.07
2023-05-12T13:16:41.857Z,2.45
2023-05-12T13:19:09.020Z,5.03
2023-05-12T13:21:35.915Z,3.95
2023-05-12T13:24:02.793Z,4.30
2023-05-12T13:26:29.685Z,2.95
2023-05-12T13:28:56.437Z,3.95
2023-05-12T13:31:23.463Z,6.95
2023-05-12T13:33:50.499Z,5.32
2023-05-12T13:36:17.609Z,2.42
2023-05-12T13:38:45.730Z,4.07
2023-05-12T13:41:12.543Z,2.35
2023-05-12T13:43:39.324Z,2.67
2023-05-12T13:46:06.192Z,13.88
2023-05-12T13:48:33.004Z,2.60
2023-05-12T13:51:02.240Z,3.92
2023-05-12T13:53:32.205Z,3.70
2023-05-12T13:55:59.034Z,3.53
2023-05-12T13:58:26.022Z,5.30
2023-05-12T14:00:55.876Z,2.45
2023-05-12T14:03:22.673Z,3.65
2023-05-12T14:05:52.497Z,2.60
2023-05-12T14:08:22.341Z,1.60
2023-05-12T14:10:49.158Z,2.97
2023-05-12T14:13:16.192Z,1.83
2023-05-12T14:15:49.343Z,4.53
2023-05-12T14:18:17.023Z,4.03
2023-05-12T14:20:43.907Z,5.00
2023-05-12T14:23:10.646Z,3.35
2023-05-12T14:25:37.529Z,4.78
2023-05-12T14:28:04.432Z,2.88
2023-05-12T14:30:31.416Z,6.45
2023-05-12T14:32:58.401Z,3.22
2023-05-12T14:35:27.477Z,4.57
2023-05-12T14:37:55.284Z,3.55
2023-05-12T14:40:23.081Z,2.95
2023-05-12T14:42:49.852Z,2.22
2023-05-12T14:45:16.721Z,4.45
2023-05-12T14:47:43.653Z,4.95
2023-05-12T14:50:11.212Z,2.88
2023-05-12T14:52:40.542Z,11.68
2023-05-12T14:55:12.414Z,6.10
2023-05-12T14:57:40.872Z,2.47
2023-05-12T15:00:13.466Z,5.88
2023-05-12T15:02:43.859Z,6.68
2023-05-12T15:05:13.448Z,6.03
2023-05-12T15:07:40.877Z,2.30
2023-05-12T15:10:08.262Z,2.88
2023-05-12T15:12:35.202Z,2.58
2023-05-12T15:15:04.664Z,2.38
2023-05-12T15:17:32.235Z,1.98
2023-05-12T15:19:59.154Z,2.63
2023-05-12T15:22:26.260Z,1.80
2023-05-12T15:24:53.339Z,4.07
2023-05-12T15:27:24.928Z,6.22
2023-05-12T15:29:53.693Z,1.98
2023-05-12T15:32:20.539Z,3.55
2023-05-12T15:34:47.323Z,4.97
2023-05-12T15:37:14.172Z,3.95
2023-05-12T15:39:40.947Z,2.40
2023-05-12T15:42:07.998Z,4.43
2023-05-12T15:44:35.378Z,1.98
2023-05-12T15:47:02.280Z,2.75
2023-05-12T15:49:29.164Z,2.92
2023-05-12T15:51:55.921Z,3.03
2023-05-12T15:54:26.466Z,2.50
2023-05-12T15:56:53.269Z,4.45
2023-05-12T15:59:20.188Z,4.20
2023-05-12T16:01:47.440Z,2.45
2023-05-12T16:04:14.384Z,3.70
2023-05-12T16:06:41.215Z,3.90
2023-05-12T16:09:08.002Z,4.38
2023-05-12T16:11:34.771Z,5.18
2023-05-12T16:14:02.601Z,7.80
2023-05-12T16:16:30.337Z,4.70
2023-05-12T16:18:57.233Z,4.05
2023-05-12T16:21:24.072Z,2.03
2023-05-12T16:23:50.963Z,2.15
2023-05-12T16:26:19.279Z,2.58
2023-05-12T16:28:46.368Z,3.10
2023-05-12T16:31:17.687Z,3.65
2023-05-12T16:33:44.642Z,2.75
2023-05-12T16:36:11.478Z,3.60
2023-05-12T16:38:38.452Z,3.58
2023-05-12T16:41:05.338Z,3.90
2023-05-12T16:43:32.187Z,6.47
2023-05-12T16:46:04.031Z,3.30
2023-05-12T16:48:34.390Z,3.00
2023-05-12T16:51:06.988Z,2.03
2023-05-12T16:53:34.742Z,2.15
2023-05-12T16:56:01.753Z,8.40
2023-05-12T16:58:32.550Z,3.47
2023-05-12T17:01:01.049Z,4.90
2023-05-12T17:03:29.371Z,7.60
2023-05-12T17:05:56.299Z,2.35
2023-05-12T17:08:23.211Z,10.23
2023-05-12T17:10:51.177Z,3.95
2023-05-12T17:13:17.929Z,2.30
2023-05-12T17:15:47.108Z,6.60
2023-05-12T17:18:14.128Z,2.83
2023-05-12T17:20:40.925Z,2.10
2023-05-12T17:23:08.177Z,1.60
2023-05-12T17:25:36.591Z,2.95
2023-05-12T17:28:04.373Z,1.95
2023-05-12T17:30:31.179Z,3.42
2023-05-12T17:32:58.666Z,3.88
2023-05-12T17:35:25.585Z,3.78
2023-05-12T17:37:55.143Z,2.83
2023-05-12T17:40:22.636Z,3.17
2023-05-12T17:42:50.188Z,3.03
2023-05-12T17:45:17.971Z,4.88
2023-05-12T17:47:45.722Z,4.03
2023-05-12T17:50:14.818Z,3.30
2023-05-12T17:52:43.425Z,5.07
2023-05-12T17:55:10.716Z,2.72
2023-05-12T17:57:37.941Z,3.55
2023-05-12T18:00:10.303Z,3.42
2023-05-12T18:02:38.548Z,4.63
2023-05-12T18:05:06.152Z,7.05
2023-05-12T18:07:33.593Z,3.42
2023-05-12T18:10:00.910Z,3.35
2023-05-12T18:12:27.838Z,3.20
2023-05-12T18:14:54.686Z,3.45
2023-05-12T18:17:21.580Z,2.70
2023-05-12T18:19:48.450Z,5.88
2023-05-12T18:22:16.705Z,4.72
2023-05-12T18:24:43.589Z,2.90
2023-05-12T18:27:10.425Z,2.35
2023-05-12T18:29:37.322Z,3.25
2023-05-12T18:32:04.289Z,2.63
2023-05-12T18:34:31.127Z,2.55
2023-05-12T18:36:57.926Z,5.30
2023-05-12T18:39:25.001Z,2.47
2023-05-12T18:41:51.925Z,6.20
2023-05-12T18:44:18.788Z,7.45
2023-05-12T18:46:45.581Z,4.68
2023-05-12T18:49:12.418Z,2.20
2023-05-12T18:51:39.208Z,3.33
2023-05-12T18:54:06.037Z,2.72
2023-05-12T18:56:32.971Z,3.80
2023-05-12T18:59:00.019Z,2.80
2023-05-12T19:01:27.679Z,7.07
2023-05-12T19:03:54.653Z,3.30
2023-05-12T19:06:21.535Z,7.50
2023-05-12T19:08:48.304Z,4.88
2023-05-12T19:11:15.103Z,3.15
2023-05-12T19:13:45.122Z,3.53
2023-05-12T19:16:12.042Z,2.70
2023-05-12T19:18:38.956Z,11.00
2023-05-12T19:21:05.939Z,3.65
2023-05-12T19:23:32.763Z,2.92
2023-05-12T19:25:59.609Z,5.43
2023-05-12T19:28:26.412Z,6.30
2023-05-12T19:30:54.840Z,7.53
2023-05-12T19:33:22.021Z,3.00
2023-05-12T19:35:48.873Z,8.02
2023-05-12T19:38:15.680Z,2.20
2023-05-12T19:40:42.550Z,5.82
2023-05-12T19:43:10.563Z,5.03
2023-05-12T19:45:37.449Z,4.20
2023-05-12T19:48:04.725Z,5.38
2023-05-12T19:50:31.918Z,3.25
2023-05-12T19:52:58.688Z,3.80
2023-05-12T19:55:25.734Z,2.80
2023-05-12T19:57:52.506Z,6.05
2023-05-12T20:00:21.973Z,10.52
2023-05-12T20:02:49.167Z,5.15
2023-05-12T20:05:16.027Z,7.10
2023-05-12T20:07:42.622Z,3.42
2023-05-12T20:10:09.853Z,9.15
2023-05-12T20:12:36.635Z,5.90
2023-05-12T20:15:03.668Z,3.75
2023-05-12T20:17:30.562Z,5.47
2023-05-12T20:19:57.334Z,5.85
2023-05-12T20:22:24.145Z,6.57
2023-05-12T20:24:51.262Z,4.95
2023-05-12T20:27:18.162Z,7.05
2023-05-12T20:29:44.960Z,5.22
2023-05-12T20:32:14.176Z,4.75
2023-05-12T20:34:41.207Z,4.47
2023-05-12T20:37:08.048Z,5.63
2023-05-12T20:39:34.850Z,6.68
2023-05-12T20:42:01.834Z,6.28
2023-05-12T20:44:28.644Z,6.22
2023-05-12T20:46:56.156Z,3.10
2023-05-12T20:49:25.740Z,4.53
2023-05-12T20:51:52.640Z,4.50
2023-05-12T20:54:19.475Z,5.00
2023-05-12T20:56:46.325Z,5.03
2023-05-12T20:59:13.635Z,6.38
2023-05-12T21:01:40.479Z,3.60
2023-05-12T21:04:07.576Z,5.43
2023-05-12T21:06:35.856Z,3.25
2023-05-12T21:09:04.939Z,4.75
2023-05-12T21:11:31.780Z,3.70
2023-05-12T21:13:58.555Z,2.90
2023-05-12T21:16:25.392Z,4.35
2023-05-12T21:18:52.190Z,3.00
2023-05-12T21:21:19.055Z,5.40
2023-05-12T21:23:46.198Z,2.70
2023-05-12T21:26:13.122Z,3.90
2023-05-12T21:28:39.921Z,2.65
2023-05-12T21:31:06.849Z,3.60
2023-05-12T21:33:33.673Z,5.90
2023-05-12T21:36:00.520Z,3.42
2023-05-12T21:38:27.328Z,4.32
2023-05-12T21:40:57.980Z,6.13
2023-05-12T21:43:24.797Z,3.88
2023-05-12T21:45:52.383Z,3.72
2023-05-12T21:48:19.271Z,3.97
2023-05-12T21:50:56.995Z,2.88
2023-05-12T21:53:23.764Z,3.33
2023-05-12T21:55:50.590Z,6.82
2023-05-12T21:58:18.318Z,4.20
2023-05-12T22:00:45.267Z,5.65
2023-05-12T22:03:12.381Z,3.75
2023-05-12T22:05:39.312Z,4.72
2023-05-12T22:08:06.258Z,5.25
2023-05-12T22:10:33.077Z,3.22
2023-05-12T22:12:59.887Z,6.78
2023-05-12T22:15:26.695Z,3.63
2023-05-12T22:17:53.786Z,7.43
2023-05-12T22:20:23.030Z,4.30
2023-05-12T22:22:52.430Z,5.85
2023-05-12T22:25:19.216Z,3.92
2023-05-12T22:27:45.986Z,4.28
2023-05-12T22:30:13.434Z,5.82
2023-05-12T22:32:42.461Z,4.03
2023-05-12T22:35:09.423Z,4.90
2023-05-12T22:37:36.514Z,5.03
2023-05-12T22:40:03.829Z,4.88
2023-05-12T22:42:30.625Z,4.65
2023-05-12T22:44:58.258Z,6.18
2023-05-12T22:47:27.993Z,7.53
2023-05-12T22:49:54.803Z,7.88
2023-05-12T22:52:21.568Z,4.70
2023-05-12T22:54:53.695Z,4.68
2023-05-12T22:57:24.936Z,6.53
2023-05-12T22:59:51.709Z,3.25
2023-05-12T23:02:18.573Z,6.93
2023-05-12T23:04:45.541Z,5.75
2023-05-12T23:07:12.471Z,3.80
2023-05-12T23:09:39.666Z,10.90
2023-05-12T23:12:07.068Z,9.98
2023-05-12T23:14:33.944Z,7.72
2023-05-12T23:17:00.912Z,4.28
2023-05-12T23:19:27.954Z,5.22
2023-05-12T23:21:54.729Z,8.57
2023-05-12T23:24:21.633Z,4.32
2023-05-12T23:26:48.436Z,4.10
2023-05-12T23:29:15.232Z,3.42
2023-05-12T23:31:42.015Z,4.50
2023-05-12T23:34:08.822Z,5.93
2023-05-12T23:36:35.704Z,3.20
2023-05-12T23:39:02.536Z,3.10
2023-05-12T23:41:31.580Z,12.00
2023-05-12T23:43:58.738Z,4.03
2023-05-12T23:46:26.119Z,6.40
2023-05-12T23:48:55.255Z,7.22
2023-05-12T23:51:22.891Z,3.35
2023-05-12T23:53:52.696Z,8.50
2023-05-12T23:56:20.068Z,5.45
2023-05-12T23:58:47.492Z,4.47
